createdAt,value
2023-05-25T00:04:35.676Z,10
2023-05-25T00:33:21.681Z,11
2023-05-25T01:02:23.179Z,11
2023-05-25T01:31:18.026Z,11
2023-05-25T02:00:17.594Z,11
2023-05-25T02:29:16.658Z,13
2023-05-25T02:58:05.859Z,11
2023-05-25T03:27:04.302Z,13
2023-05-25T03:55:26.204Z,14
2023-05-25T04:24:29.108Z,11
2023-05-25T04:53:46.500Z,12
2023-05-25T05:22:55.442Z,14
2023-05-25T05:52:05.392Z,13
2023-05-25T06:21:13.276Z,13
2023-05-25T06:49:29.691Z,13
2023-05-25T07:18:43.182Z,13
2023-05-25T07:47:52.068Z,13
2023-05-25T08:16:56.434Z,13
2023-05-25T08:45:06.677Z,13
2023-05-25T09:14:24.556Z,13
2023-05-25T09:43:40.431Z,14
2023-05-25T10:12:11.712Z,13
2023-05-25T10:41:05.986Z,13
2023-05-25T11:09:51.130Z,14
2023-05-25T11:39:17.450Z,14
2023-05-25T12:07:32.527Z,11
2023-05-25T12:36:27.399Z,11
2023-05-25T13:05:29.915Z,11
2023-05-25T13:34:22.930Z,11
2023-05-25T14:03:23.604Z,11
2023-05-25T14:32:15.591Z,13
2023-05-25T15:01:25.458Z,11
2023-05-25T15:29:55.740Z,13
2023-05-25T15:58:55.611Z,11
2023-05-25T16:27:50.216Z,11
2023-05-25T16:56:51.315Z,11
2023-05-25T17:25:06.814Z,11
2023-05-25T17:53:28.752Z,11
2023-05-25T18:22:29.099Z,13
2023-05-25T18:50:46.257Z,13
2023-05-25T19:19:05.779Z,11
2023-05-25T19:47:28.517Z,15
2023-05-25T20:15:56.008Z,14
2023-05-25T20:44:13.082Z,13
2023-05-25T21:12:32.562Z,16
2023-05-25T21:40:48.674Z,14
2023-05-25T22:09:11.547Z,16
2023-05-25T22:37:29.192Z,16
2023-05-25T23:05:44.467Z,17
2023-05-25T23:34:07.302Z,18
